sensor_id;sensor_type;location;lat;lon;timestamp;temperature;humidity
71084;DHT22;58741;52.672;13.548;2022-08-01T00:00:35;21.30;63.40
71084;DHT22;58741;52.672;13.548;2022-08-01T00:03:00;21.30;63.00
71084;DHT22;58741;52.672;13.548;2022-08-01T00:05:26;21.30;63.90
71084;DHT22;58741;52.672;13.548;2022-08-01T00:07:51;21.30;63.80
71084;DHT22;58741;52.672;13.548;2022-08-01T00:10:17;21.30;63.20
71084;DHT22;58741;52.672;13.548;2022-08-01T00:12:44;21.30;64.00
71084;DHT22;58741;52.672;13.548;2022-08-01T00:15:12;21.20;64.20
71084;DHT22;58741;52.672;13.548;2022-08-01T00:17:38;21.20;64.00
71084;DHT22;58741;52.672;13.548;2022-08-01T00:20:05;21.20;64.70
71084;DHT22;58741;52.672;13.548;2022-08-01T00:22:32;21.20;64.70
71084;DHT22;58741;52.672;13.548;2022-08-01T00:24:58;21.20;65.50
71084;DHT22;58741;52.672;13.548;2022-08-01T00:27:23;21.20;65.20
71084;DHT22;58741;52.672;13.548;2022-08-01T00:29:48;21.20;66.60
71084;DHT22;58741;52.672;13.548;2022-08-01T00:32:14;21.10;66.20
71084;DHT22;58741;52.672;13.548;2022-08-01T00:34:39;21.10;67.00
71084;DHT22;58741;52.672;13.548;2022-08-01T00:37:05;21.10;67.10
71084;DHT22;58741;52.672;13.548;2022-08-01T00:39:30;21.10;67.60
71084;DHT22;58741;52.672;13.548;2022-08-01T00:41:59;21.10;67.80
71084;DHT22;58741;52.672;13.548;2022-08-01T00:44:24;21.00;69.00
71084;DHT22;58741;52.672;13.548;2022-08-01T00:46:50;21.00;69.90
71084;DHT22;58741;52.672;13.548;2022-08-01T00:49:15;21.00;69.80
71084;DHT22;58741;52.672;13.548;2022-08-01T00:51:41;21.00;70.50
71084;DHT22;58741;52.672;13.548;2022-08-01T00:54:06;20.90;72.00
71084;DHT22;58741;52.672;13.548;2022-08-01T00:56:32;20.90;72.80
71084;DHT22;58741;52.672;13.548;2022-08-01T00:58:58;20.90;75.00
71084;DHT22;58741;52.672;13.548;2022-08-01T01:01:24;20.80;76.10
71084;DHT22;58741;52.672;13.548;2022-08-01T01:03:51;20.70;77.10
71084;DHT22;58741;52.672;13.548;2022-08-01T01:06:34;20.60;76.90
71084;DHT22;58741;52.672;13.548;2022-08-01T01:09:09;20.60;76.40
71084;DHT22;58741;52.672;13.548;2022-08-01T01:11:47;20.60;78.20
71084;DHT22;58741;52.672;13.548;2022-08-01T01:14:23;20.50;78.00
71084;DHT22;58741;52.672;13.548;2022-08-01T01:16:51;20.40;78.60
71084;DHT22;58741;52.672;13.548;2022-08-01T01:19:24;20.40;78.30
71084;DHT22;58741;52.672;13.548;2022-08-01T01:22:27;20.40;78.60
71084;DHT22;58741;52.672;13.548;2022-08-01T01:30:38;20.20;78.10
71084;DHT22;58741;52.672;13.548;2022-08-01T01:33:08;20.20;80.00
71084;DHT22;58741;52.672;13.548;2022-08-01T01:35:36;20.10;80.00
71084;DHT22;58741;52.672;13.548;2022-08-01T01:38:20;20.10;81.00
71084;DHT22;58741;52.672;13.548;2022-08-01T01:40:48;20.10;79.70
71084;DHT22;58741;52.672;13.548;2022-08-01T01:43:15;20.00;81.10
71084;DHT22;58741;52.672;13.548;2022-08-01T01:45:42;20.00;81.00
71084;DHT22;58741;52.672;13.548;2022-08-01T01:48:10;20.00;81.40
71084;DHT22;58741;52.672;13.548;2022-08-01T01:50:39;19.90;81.50
71084;DHT22;58741;52.672;13.548;2022-08-01T01:53:05;19.90;81.70
71084;DHT22;58741;52.672;13.548;2022-08-01T01:55:32;19.90;81.90
71084;DHT22;58741;52.672;13.548;2022-08-01T01:58:00;19.90;82.50
71084;DHT22;58741;52.672;13.548;2022-08-01T02:00:27;19.80;82.20
71084;DHT22;58741;52.672;13.548;2022-08-01T02:02:55;19.80;81.80
71084;DHT22;58741;52.672;13.548;2022-08-01T02:05:22;19.80;82.50
71084;DHT22;58741;52.672;13.548;2022-08-01T02:07:49;19.80;82.20
71084;DHT22;58741;52.672;13.548;2022-08-01T02:10:17;19.80;82.70
71084;DHT22;58741;52.672;13.548;2022-08-01T02:12:44;19.80;82.50
71084;DHT22;58741;52.672;13.548;2022-08-01T02:15:12;19.70;82.40
71084;DHT22;58741;52.672;13.548;2022-08-01T02:17:42;19.70;82.40
71084;DHT22;58741;52.672;13.548;2022-08-01T02:20:09;19.70;82.30
71084;DHT22;58741;52.672;13.548;2022-08-01T02:23:00;19.70;82.10
71084;DHT22;58741;52.672;13.548;2022-08-01T02:25:39;19.60;82.10
71084;DHT22;58741;52.672;13.548;2022-08-01T02:28:09;19.60;81.90
71084;DHT22;58741;52.672;13.548;2022-08-01T02:30:37;19.60;82.40
71084;DHT22;58741;52.672;13.548;2022-08-01T02:33:24;19.50;82.20
71084;DHT22;58741;52.672;13.548;2022-08-01T02:35:56;19.50;80.90
71084;DHT22;58741;52.672;13.548;2022-08-01T02:38:26;19.40;81.60
71084;DHT22;58741;52.672;13.548;2022-08-01T02:40:53;19.40;82.20
71084;DHT22;58741;52.672;13.548;2022-08-01T02:43:21;19.40;82.10
71084;DHT22;58741;52.672;13.548;2022-08-01T02:45:53;19.30;82.20
71084;DHT22;58741;52.672;13.548;2022-08-01T02:48:20;19.30;82.40
71084;DHT22;58741;52.672;13.548;2022-08-01T02:50:49;19.20;83.10
71084;DHT22;58741;52.672;13.548;2022-08-01T02:53:18;19.20;83.10
71084;DHT22;58741;52.672;13.548;2022-08-01T02:55:45;19.20;83.30
71084;DHT22;58741;52.672;13.548;2022-08-01T02:58:14;19.10;83.50
71084;DHT22;58741;52.672;13.548;2022-08-01T03:00:42;19.10;83.60
71084;DHT22;58741;52.672;13.548;2022-08-01T03:03:09;19.10;84.20
71084;DHT22;58741;52.672;13.548;2022-08-01T03:05:36;19.00;84.30
71084;DHT22;58741;52.672;13.548;2022-08-01T03:08:03;19.00;83.80
71084;DHT22;58741;52.672;13.548;2022-08-01T03:10:31;19.00;84.10
71084;DHT22;58741;52.672;13.548;2022-08-01T03:12:59;18.90;84.40
71084;DHT22;58741;52.672;13.548;2022-08-01T03:15:26;18.90;84.80
71084;DHT22;58741;52.672;13.548;2022-08-01T03:17:55;18.90;85.10
71084;DHT22;58741;52.672;13.548;2022-08-01T03:20:22;18.90;85.10
71084;DHT22;58741;52.672;13.548;2022-08-01T03:22:50;18.90;85.80
71084;DHT22;58741;52.672;13.548;2022-08-01T03:25:18;18.90;85.80
71084;DHT22;58741;52.672;13.548;2022-08-01T03:27:50;18.90;86.00
71084;DHT22;58741;52.672;13.548;2022-08-01T03:30:17;18.90;85.80
71084;DHT22;58741;52.672;13.548;2022-08-01T03:32:42;18.80;86.00
71084;DHT22;58741;52.672;13.548;2022-08-01T03:35:08;18.80;87.10
71084;DHT22;58741;52.672;13.548;2022-08-01T03:37:49;18.80;86.70
71084;DHT22;58741;52.672;13.548;2022-08-01T03:40:25;18.80;85.20
71084;DHT22;58741;52.672;13.548;2022-08-01T03:42:56;18.80;85.80
71084;DHT22;58741;52.672;13.548;2022-08-01T03:45:25;18.80;86.20
71084;DHT22;58741;52.672;13.548;2022-08-01T03:47:58;18.80;86.40
71084;DHT22;58741;52.672;13.548;2022-08-01T03:50:24;18.80;86.60
71084;DHT22;58741;52.672;13.548;2022-08-01T03:52:51;18.80;87.00
71084;DHT22;58741;52.672;13.548;2022-08-01T03:55:18;18.80;87.00
71084;DHT22;58741;52.672;13.548;2022-08-01T03:57:45;18.80;87.60
71084;DHT22;58741;52.672;13.548;2022-08-01T04:00:11;18.80;86.80
71084;DHT22;58741;52.672;13.548;2022-08-01T04:02:37;18.80;86.80
71084;DHT22;58741;52.672;13.548;2022-08-01T04:05:04;18.80;87.60
71084;DHT22;58741;52.672;13.548;2022-08-01T04:07:31;18.80;87.60
71084;DHT22;58741;52.672;13.548;2022-08-01T04:09:57;18.80;87.10
71084;DHT22;58741;52.672;13.548;2022-08-01T04:12:23;18.80;87.50
71084;DHT22;58741;52.672;13.548;2022-08-01T04:14:48;18.90;88.10
71084;DHT22;58741;52.672;13.548;2022-08-01T04:17:15;18.90;88.00
71084;DHT22;58741;52.672;13.548;2022-08-01T04:19:41;18.90;87.90
71084;DHT22;58741;52.672;13.548;2022-08-01T04:22:09;18.90;88.00
71084;DHT22;58741;52.672;13.548;2022-08-01T04:24:36;18.90;88.00
71084;DHT22;58741;52.672;13.548;2022-08-01T04:27:07;18.90;88.50
71084;DHT22;58741;52.672;13.548;2022-08-01T04:29:35;18.90;88.30
71084;DHT22;58741;52.672;13.548;2022-08-01T04:32:02;19.00;87.70
71084;DHT22;58741;52.672;13.548;2022-08-01T04:34:30;19.00;88.70
71084;DHT22;58741;52.672;13.548;2022-08-01T04:36:57;19.00;89.00
71084;DHT22;58741;52.672;13.548;2022-08-01T04:39:25;19.00;88.90
71084;DHT22;58741;52.672;13.548;2022-08-01T04:41:58;19.00;89.00
71084;DHT22;58741;52.672;13.548;2022-08-01T04:44:25;19.00;88.70
71084;DHT22;58741;52.672;13.548;2022-08-01T04:46:53;19.10;89.20
71084;DHT22;58741;52.672;13.548;2022-08-01T04:49:20;19.10;90.00
71084;DHT22;58741;52.672;13.548;2022-08-01T04:51:53;19.10;89.50
71084;DHT22;58741;52.672;13.548;2022-08-01T04:54:32;19.10;90.10
71084;DHT22;58741;52.672;13.548;2022-08-01T04:56:59;19.10;89.40
71084;DHT22;58741;52.672;13.548;2022-08-01T04:59:28;19.10;89.70
71084;DHT22;58741;52.672;13.548;2022-08-01T05:02:15;19.10;90.00
71084;DHT22;58741;52.672;13.548;2022-08-01T05:04:42;19.10;89.10
71084;DHT22;58741;52.672;13.548;2022-08-01T05:07:08;19.10;89.30
71084;DHT22;58741;52.672;13.548;2022-08-01T05:09:35;19.10;90.60
71084;DHT22;58741;52.672;13.548;2022-08-01T05:12:02;19.10;90.00
71084;DHT22;58741;52.672;13.548;2022-08-01T05:14:28;19.20;90.50
71084;DHT22;58741;52.672;13.548;2022-08-01T05:17:00;19.10;90.10
71084;DHT22;58741;52.672;13.548;2022-08-01T05:19:29;19.20;90.00
71084;DHT22;58741;52.672;13.548;2022-08-01T05:21:55;19.20;90.50
71084;DHT22;58741;52.672;13.548;2022-08-01T05:24:21;19.30;90.80
71084;DHT22;58741;52.672;13.548;2022-08-01T05:26:47;19.30;90.10
71084;DHT22;58741;52.672;13.548;2022-08-01T05:29:14;19.30;90.00
71084;DHT22;58741;52.672;13.548;2022-08-01T05:31:40;19.30;90.30
71084;DHT22;58741;52.672;13.548;2022-08-01T05:34:05;19.30;90.40
71084;DHT22;58741;52.672;13.548;2022-08-01T05:36:31;19.30;90.20
71084;DHT22;58741;52.672;13.548;2022-08-01T05:38:56;19.30;90.80
71084;DHT22;58741;52.672;13.548;2022-08-01T05:41:22;19.40;90.50
71084;DHT22;58741;52.672;13.548;2022-08-01T05:43:47;19.40;90.60
71084;DHT22;58741;52.672;13.548;2022-08-01T05:46:13;19.40;90.30
71084;DHT22;58741;52.672;13.548;2022-08-01T05:48:38;19.40;90.20
71084;DHT22;58741;52.672;13.548;2022-08-01T05:51:04;19.40;90.10
71084;DHT22;58741;52.672;13.548;2022-08-01T05:53:29;19.50;90.20
71084;DHT22;58741;52.672;13.548;2022-08-01T05:55:55;19.50;91.00
71084;DHT22;58741;52.672;13.548;2022-08-01T05:58:21;19.50;90.50
71084;DHT22;58741;52.672;13.548;2022-08-01T06:00:47;19.50;91.00
71084;DHT22;58741;52.672;13.548;2022-08-01T06:03:12;19.50;91.00
71084;DHT22;58741;52.672;13.548;2022-08-01T06:05:39;19.50;91.00
71084;DHT22;58741;52.672;13.548;2022-08-01T06:08:05;19.50;90.70
71084;DHT22;58741;52.672;13.548;2022-08-01T06:10:30;19.50;90.80
71084;DHT22;58741;52.672;13.548;2022-08-01T06:12:56;19.50;91.30
71084;DHT22;58741;52.672;13.548;2022-08-01T06:15:21;19.60;90.80
71084;DHT22;58741;52.672;13.548;2022-08-01T06:17:47;19.50;90.70
71084;DHT22;58741;52.672;13.548;2022-08-01T06:20:13;19.60;90.60
71084;DHT22;58741;52.672;13.548;2022-08-01T06:22:38;19.60;90.60
71084;DHT22;58741;52.672;13.548;2022-08-01T06:25:04;19.60;90.20
71084;DHT22;58741;52.672;13.548;2022-08-01T06:27:30;19.60;90.90
71084;DHT22;58741;52.672;13.548;2022-08-01T06:29:55;19.60;90.80
71084;DHT22;58741;52.672;13.548;2022-08-01T06:32:22;19.60;90.50
71084;DHT22;58741;52.672;13.548;2022-08-01T06:34:48;19.70;90.90
71084;DHT22;58741;52.672;13.548;2022-08-01T06:37:13;19.70;90.80
71084;DHT22;58741;52.672;13.548;2022-08-01T06:39:39;19.70;90.80
71084;DHT22;58741;52.672;13.548;2022-08-01T06:42:05;19.70;90.40
71084;DHT22;58741;52.672;13.548;2022-08-01T06:44:31;19.70;91.00
71084;DHT22;58741;52.672;13.548;2022-08-01T06:46:56;19.80;90.60
71084;DHT22;58741;52.672;13.548;2022-08-01T06:49:24;19.80;90.50
71084;DHT22;58741;52.672;13.548;2022-08-01T06:51:49;19.80;91.00
71084;DHT22;58741;52.672;13.548;2022-08-01T06:54:15;19.80;90.70
71084;DHT22;58741;52.672;13.548;2022-08-01T06:56:41;19.90;90.90
71084;DHT22;58741;52.672;13.548;2022-08-01T06:59:07;19.90;90.50
71084;DHT22;58741;52.672;13.548;2022-08-01T07:01:33;19.90;90.50
71084;DHT22;58741;52.672;13.548;2022-08-01T07:03:58;19.90;90.40
71084;DHT22;58741;52.672;13.548;2022-08-01T07:06:25;20.00;91.00
71084;DHT22;58741;52.672;13.548;2022-08-01T07:08:52;20.00;90.70
71084;DHT22;58741;52.672;13.548;2022-08-01T07:11:18;20.10;90.80
71084;DHT22;58741;52.672;13.548;2022-08-01T07:13:44;20.10;90.40
71084;DHT22;58741;52.672;13.548;2022-08-01T07:16:14;20.10;90.30
71084;DHT22;58741;52.672;13.548;2022-08-01T07:18:40;20.20;90.50
71084;DHT22;58741;52.672;13.548;2022-08-01T07:21:06;20.20;90.00
71084;DHT22;58741;52.672;13.548;2022-08-01T07:23:31;20.20;90.20
71084;DHT22;58741;52.672;13.548;2022-08-01T07:25:57;20.20;90.10
71084;DHT22;58741;52.672;13.548;2022-08-01T07:28:22;20.20;90.00
71084;DHT22;58741;52.672;13.548;2022-08-01T07:30:48;20.20;89.80
71084;DHT22;58741;52.672;13.548;2022-08-01T07:33:13;20.30;89.80
71084;DHT22;58741;52.672;13.548;2022-08-01T07:35:39;20.30;90.00
71084;DHT22;58741;52.672;13.548;2022-08-01T07:38:08;20.30;89.80
71084;DHT22;58741;52.672;13.548;2022-08-01T07:40:33;20.30;90.20
71084;DHT22;58741;52.672;13.548;2022-08-01T07:42:59;20.40;90.80
71084;DHT22;58741;52.672;13.548;2022-08-01T07:45:25;20.60;90.50
71084;DHT22;58741;52.672;13.548;2022-08-01T07:47:52;20.70;90.50
71084;DHT22;58741;52.672;13.548;2022-08-01T07:50:17;20.80;90.40
71084;DHT22;58741;52.672;13.548;2022-08-01T07:52:43;20.90;89.10
71084;DHT22;58741;52.672;13.548;2022-08-01T07:55:10;21.00;89.00
71084;DHT22;58741;52.672;13.548;2022-08-01T07:57:36;21.00;88.10
71084;DHT22;58741;52.672;13.548;2022-08-01T08:00:06;21.00;87.60
71084;DHT22;58741;52.672;13.548;2022-08-01T08:02:32;21.00;87.10
71084;DHT22;58741;52.672;13.548;2022-08-01T08:04:58;21.00;88.40
71084;DHT22;58741;52.672;13.548;2022-08-01T08:07:23;21.00;88.00
71084;DHT22;58741;52.672;13.548;2022-08-01T08:09:49;21.10;87.50
71084;DHT22;58741;52.672;13.548;2022-08-01T08:12:14;21.20;87.40
71084;DHT22;58741;52.672;13.548;2022-08-01T08:14:40;21.20;87.30
71084;DHT22;58741;52.672;13.548;2022-08-01T08:17:06;21.30;86.50
71084;DHT22;58741;52.672;13.548;2022-08-01T08:19:31;21.30;85.30
71084;DHT22;58741;52.672;13.548;2022-08-01T08:21:59;21.30;85.50
71084;DHT22;58741;52.672;13.548;2022-08-01T08:24:25;21.30;85.30
71084;DHT22;58741;52.672;13.548;2022-08-01T08:27:01;21.30;84.70
71084;DHT22;58741;52.672;13.548;2022-08-01T08:29:28;21.30;84.60
71084;DHT22;58741;52.672;13.548;2022-08-01T08:31:55;21.30;84.20
71084;DHT22;58741;52.672;13.548;2022-08-01T08:34:21;21.30;84.80
71084;DHT22;58741;52.672;13.548;2022-08-01T08:36:48;21.30;85.70
71084;DHT22;58741;52.672;13.548;2022-08-01T08:39:14;21.30;86.70
71084;DHT22;58741;52.672;13.548;2022-08-01T08:41:39;21.40;86.70
71084;DHT22;58741;52.672;13.548;2022-08-01T08:44:07;21.50;86.60
71084;DHT22;58741;52.672;13.548;2022-08-01T08:46:33;21.50;85.90
71084;DHT22;58741;52.672;13.548;2022-08-01T08:49:03;21.60;85.00
71084;DHT22;58741;52.672;13.548;2022-08-01T08:51:30;21.60;84.00
71084;DHT22;58741;52.672;13.548;2022-08-01T08:53:59;21.60;84.40
71084;DHT22;58741;52.672;13.548;2022-08-01T08:56:26;21.60;83.70
71084;DHT22;58741;52.672;13.548;2022-08-01T08:58:55;21.70;83.90
71084;DHT22;58741;52.672;13.548;2022-08-01T09:01:21;21.70;83.50
71084;DHT22;58741;52.672;13.548;2022-08-01T09:03:47;21.70;83.50
71084;DHT22;58741;52.672;13.548;2022-08-01T09:06:13;21.80;84.00
71084;DHT22;58741;52.672;13.548;2022-08-01T09:08:39;21.80;83.50
71084;DHT22;58741;52.672;13.548;2022-08-01T09:11:05;21.90;82.90
71084;DHT22;58741;52.672;13.548;2022-08-01T09:13:30;22.00;81.70
71084;DHT22;58741;52.672;13.548;2022-08-01T09:15:56;22.00;81.10
71084;DHT22;58741;52.672;13.548;2022-08-01T09:18:38;22.00;81.20
71084;DHT22;58741;52.672;13.548;2022-08-01T09:24:12;22.00;81.00
71084;DHT22;58741;52.672;13.548;2022-08-01T09:26:29;22.00;81.20
71084;DHT22;58741;52.672;13.548;2022-08-01T09:28:55;22.00;80.30
71084;DHT22;58741;52.672;13.548;2022-08-01T09:31:21;22.00;80.10
71084;DHT22;58741;52.672;13.548;2022-08-01T09:33:54;22.00;80.70
71084;DHT22;58741;52.672;13.548;2022-08-01T09:36:23;22.00;80.90
71084;DHT22;58741;52.672;13.548;2022-08-01T09:38:50;21.90;80.60
71084;DHT22;58741;52.672;13.548;2022-08-01T09:41:16;21.90;80.90
71084;DHT22;58741;52.672;13.548;2022-08-01T09:43:48;21.90;81.10
71084;DHT22;58741;52.672;13.548;2022-08-01T09:46:15;21.90;79.90
71084;DHT22;58741;52.672;13.548;2022-08-01T09:49:13;21.90;81.30
71084;DHT22;58741;52.672;13.548;2022-08-01T09:51:39;21.80;79.50
71084;DHT22;58741;52.672;13.548;2022-08-01T09:54:06;21.90;80.30
71084;DHT22;58741;52.672;13.548;2022-08-01T09:56:42;21.90;80.70
71084;DHT22;58741;52.672;13.548;2022-08-01T09:59:08;21.90;80.00
71084;DHT22;58741;52.672;13.548;2022-08-01T10:01:50;21.90;81.00
71084;DHT22;58741;52.672;13.548;2022-08-01T10:04:20;22.00;80.50
71084;DHT22;58741;52.672;13.548;2022-08-01T10:06:48;22.10;80.10
71084;DHT22;58741;52.672;13.548;2022-08-01T10:09:34;22.10;80.30
71084;DHT22;58741;52.672;13.548;2022-08-01T10:12:00;22.10;79.30
71084;DHT22;58741;52.672;13.548;2022-08-01T10:14:27;22.20;79.40
71084;DHT22;58741;52.672;13.548;2022-08-01T10:16:54;22.20;79.40
71084;DHT22;58741;52.672;13.548;2022-08-01T10:19:23;22.20;80.00
71084;DHT22;58741;52.672;13.548;2022-08-01T10:21:50;22.30;79.70
71084;DHT22;58741;52.672;13.548;2022-08-01T10:24:21;22.30;79.90
71084;DHT22;58741;52.672;13.548;2022-08-01T10:26:55;22.40;80.60
71084;DHT22;58741;52.672;13.548;2022-08-01T10:29:24;22.40;78.60
71084;DHT22;58741;52.672;13.548;2022-08-01T10:31:51;22.50;79.60
71084;DHT22;58741;52.672;13.548;2022-08-01T10:34:17;22.50;77.30
71084;DHT22;58741;52.672;13.548;2022-08-01T10:36:45;22.50;75.90
71084;DHT22;58741;52.672;13.548;2022-08-01T10:39:12;22.50;76.30
71084;DHT22;58741;52.672;13.548;2022-08-01T10:41:41;22.40;77.20
71084;DHT22;58741;52.672;13.548;2022-08-01T10:44:09;22.40;77.50
71084;DHT22;58741;52.672;13.548;2022-08-01T10:46:39;22.40;76.20
71084;DHT22;58741;52.672;13.548;2022-08-01T10:49:11;22.40;77.10
71084;DHT22;58741;52.672;13.548;2022-08-01T10:51:38;22.30;76.00
71084;DHT22;58741;52.672;13.548;2022-08-01T10:54:09;22.30;77.20
71084;DHT22;58741;52.672;13.548;2022-08-01T10:56:48;22.30;77.80
71084;DHT22;58741;52.672;13.548;2022-08-01T10:59:28;22.40;77.80
71084;DHT22;58741;52.672;13.548;2022-08-01T11:02:03;22.40;78.20
71084;DHT22;58741;52.672;13.548;2022-08-01T11:04:51;22.50;77.80
71084;DHT22;58741;52.672;13.548;2022-08-01T11:07:24;22.50;76.80
71084;DHT22;58741;52.672;13.548;2022-08-01T11:10:09;22.40;77.00
71084;DHT22;58741;52.672;13.548;2022-08-01T11:12:42;22.40;77.60
71084;DHT22;58741;52.672;13.548;2022-08-01T11:17:45;22.50;77.70
71084;DHT22;58741;52.672;13.548;2022-08-01T11:20:17;22.50;76.80
71084;DHT22;58741;52.672;13.548;2022-08-01T11:25:27;22.50;76.80
71084;DHT22;58741;52.672;13.548;2022-08-01T11:30:47;22.50;77.10
71084;DHT22;58741;52.672;13.548;2022-08-01T11:33:15;22.50;77.70
71084;DHT22;58741;52.672;13.548;2022-08-01T11:38:49;22.50;76.80
71084;DHT22;58741;52.672;13.548;2022-08-01T11:41:26;22.60;76.70
71084;DHT22;58741;52.672;13.548;2022-08-01T11:44:10;22.50;77.30
71084;DHT22;58741;52.672;13.548;2022-08-01T11:46:55;22.60;76.90
71084;DHT22;58741;52.672;13.548;2022-08-01T11:52:09;22.60;76.40
71084;DHT22;58741;52.672;13.548;2022-08-01T11:54:43;22.60;78.10
71084;DHT22;58741;52.672;13.548;2022-08-01T11:57:25;22.60;77.50
71084;DHT22;58741;52.672;13.548;2022-08-01T11:59:53;22.70;77.70
71084;DHT22;58741;52.672;13.548;2022-08-01T12:02:24;22.70;78.20
71084;DHT22;58741;52.672;13.548;2022-08-01T12:04:52;22.80;77.90
71084;DHT22;58741;52.672;13.548;2022-08-01T12:07:18;22.90;78.00
71084;DHT22;58741;52.672;13.548;2022-08-01T12:09:44;23.00;76.80
71084;DHT22;58741;52.672;13.548;2022-08-01T12:12:14;23.00;77.60
71084;DHT22;58741;52.672;13.548;2022-08-01T12:14:39;23.10;77.00
71084;DHT22;58741;52.672;13.548;2022-08-01T12:17:05;23.20;77.30
71084;DHT22;58741;52.672;13.548;2022-08-01T12:19:30;23.20;76.80
71084;DHT22;58741;52.672;13.548;2022-08-01T12:22:13;23.10;77.40
71084;DHT22;58741;52.672;13.548;2022-08-01T12:24:40;23.10;76.60
71084;DHT22;58741;52.672;13.548;2022-08-01T12:27:08;23.00;77.20
71084;DHT22;58741;52.672;13.548;2022-08-01T12:29:42;22.90;77.00
71084;DHT22;58741;52.672;13.548;2022-08-01T12:32:24;22.80;77.00
71084;DHT22;58741;52.672;13.548;2022-08-01T12:34:50;22.80;77.70
71084;DHT22;58741;52.672;13.548;2022-08-01T12:37:16;22.80;77.90
71084;DHT22;58741;52.672;13.548;2022-08-01T12:39:43;22.80;77.30
71084;DHT22;58741;52.672;13.548;2022-08-01T12:42:09;22.70;77.30
71084;DHT22;58741;52.672;13.548;2022-08-01T12:44:36;22.80;77.80
71084;DHT22;58741;52.672;13.548;2022-08-01T12:47:02;22.80;78.60
71084;DHT22;58741;52.672;13.548;2022-08-01T12:49:29;22.80;77.30
71084;DHT22;58741;52.672;13.548;2022-08-01T12:51:55;22.80;77.30
71084;DHT22;58741;52.672;13.548;2022-08-01T12:54:21;22.80;77.50
71084;DHT22;58741;52.672;13.548;2022-08-01T12:56:47;22.90;77.40
71084;DHT22;58741;52.672;13.548;2022-08-01T12:59:21;22.90;77.60
71084;DHT22;58741;52.672;13.548;2022-08-01T13:01:48;23.00;77.10
71084;DHT22;58741;52.672;13.548;2022-08-01T13:04:14;23.00;76.90
71084;DHT22;58741;52.672;13.548;2022-08-01T13:06:39;23.10;76.20
71084;DHT22;58741;52.672;13.548;2022-08-01T13:09:06;23.10;75.70
71084;DHT22;58741;52.672;13.548;2022-08-01T13:11:31;23.10;75.70
71084;DHT22;58741;52.672;13.548;2022-08-01T13:13:57;23.10;75.70
71084;DHT22;58741;52.672;13.548;2022-08-01T13:16:26;23.10;75.90
71084;DHT22;58741;52.672;13.548;2022-08-01T13:18:54;23.10;75.50
71084;DHT22;58741;52.672;13.548;2022-08-01T13:21:23;23.10;75.20
71084;DHT22;58741;52.672;13.548;2022-08-01T13:24:11;23.10;75.50
71084;DHT22;58741;52.672;13.548;2022-08-01T13:26:47;23.10;75.30
71084;DHT22;58741;52.672;13.548;2022-08-01T13:29:20;23.10;75.30
71084;DHT22;58741;52.672;13.548;2022-08-01T13:31:46;23.10;75.80
71084;DHT22;58741;52.672;13.548;2022-08-01T13:34:12;23.20;75.90
71084;DHT22;58741;52.672;13.548;2022-08-01T13:36:38;23.20;75.50
71084;DHT22;58741;52.672;13.548;2022-08-01T13:39:05;23.30;74.70
71084;DHT22;58741;52.672;13.548;2022-08-01T13:41:49;23.30;74.40
71084;DHT22;58741;52.672;13.548;2022-08-01T13:44:14;23.30;74.10
71084;DHT22;58741;52.672;13.548;2022-08-01T13:46:41;23.40;74.30
71084;DHT22;58741;52.672;13.548;2022-08-01T13:49:09;23.40;73.20
71084;DHT22;58741;52.672;13.548;2022-08-01T13:51:35;23.40;72.00
71084;DHT22;58741;52.672;13.548;2022-08-01T13:54:01;23.50;72.60
71084;DHT22;58741;52.672;13.548;2022-08-01T13:56:26;23.60;71.80
71084;DHT22;58741;52.672;13.548;2022-08-01T13:58:55;23.70;72.20
71084;DHT22;58741;52.672;13.548;2022-08-01T14:01:21;23.70;71.20
71084;DHT22;58741;52.672;13.548;2022-08-01T14:03:47;23.70;72.70
71084;DHT22;58741;52.672;13.548;2022-08-01T14:06:14;23.80;72.50
71084;DHT22;58741;52.672;13.548;2022-08-01T14:08:44;23.90;72.10
71084;DHT22;58741;52.672;13.548;2022-08-01T14:11:11;23.90;70.30
71084;DHT22;58741;52.672;13.548;2022-08-01T14:13:37;23.90;69.90
71084;DHT22;58741;52.672;13.548;2022-08-01T14:16:04;23.80;70.70
71084;DHT22;58741;52.672;13.548;2022-08-01T14:18:30;23.80;70.90
71084;DHT22;58741;52.672;13.548;2022-08-01T14:20:56;23.70;71.10
71084;DHT22;58741;52.672;13.548;2022-08-01T14:23:22;23.70;71.20
71084;DHT22;58741;52.672;13.548;2022-08-01T14:25:47;23.70;71.70
71084;DHT22;58741;52.672;13.548;2022-08-01T14:28:13;23.70;71.50
71084;DHT22;58741;52.672;13.548;2022-08-01T14:30:38;23.60;71.60
71084;DHT22;58741;52.672;13.548;2022-08-01T14:33:04;23.70;72.20
71084;DHT22;58741;52.672;13.548;2022-08-01T14:35:29;23.60;71.50
71084;DHT22;58741;52.672;13.548;2022-08-01T14:37:55;23.60;72.20
71084;DHT22;58741;52.672;13.548;2022-08-01T14:40:20;23.50;71.80
71084;DHT22;58741;52.672;13.548;2022-08-01T14:42:46;23.40;72.00
71084;DHT22;58741;52.672;13.548;2022-08-01T14:45:13;23.40;72.30
71084;DHT22;58741;52.672;13.548;2022-08-01T14:47:41;23.30;71.50
71084;DHT22;58741;52.672;13.548;2022-08-01T14:50:09;23.20;72.20
71084;DHT22;58741;52.672;13.548;2022-08-01T14:52:36;23.10;72.00
71084;DHT22;58741;52.672;13.548;2022-08-01T14:55:04;23.10;72.80
71084;DHT22;58741;52.672;13.548;2022-08-01T14:57:30;23.00;71.10
71084;DHT22;58741;52.672;13.548;2022-08-01T14:59:55;23.00;71.10
71084;DHT22;58741;52.672;13.548;2022-08-01T15:02:21;22.90;70.20
71084;DHT22;58741;52.672;13.548;2022-08-01T15:04:47;22.90;71.10
71084;DHT22;58741;52.672;13.548;2022-08-01T15:07:13;22.90;70.30
71084;DHT22;58741;52.672;13.548;2022-08-01T15:09:39;22.90;70.60
71084;DHT22;58741;52.672;13.548;2022-08-01T15:12:05;22.90;70.30
71084;DHT22;58741;52.672;13.548;2022-08-01T15:14:30;23.00;71.90
71084;DHT22;58741;52.672;13.548;2022-08-01T15:17:19;23.20;71.50
71084;DHT22;58741;52.672;13.548;2022-08-01T15:19:53;23.40;72.60
71084;DHT22;58741;52.672;13.548;2022-08-01T15:22:19;23.60;70.50
71084;DHT22;58741;52.672;13.548;2022-08-01T15:24:47;23.80;70.10
71084;DHT22;58741;52.672;13.548;2022-08-01T15:27:12;24.00;70.80
71084;DHT22;58741;52.672;13.548;2022-08-01T15:29:38;24.20;66.40
71084;DHT22;58741;52.672;13.548;2022-08-01T15:32:05;24.30;65.40
71084;DHT22;58741;52.672;13.548;2022-08-01T15:34:31;24.40;65.70
71084;DHT22;58741;52.672;13.548;2022-08-01T15:36:57;24.40;65.50
71084;DHT22;58741;52.672;13.548;2022-08-01T15:39:23;24.50;64.80
71084;DHT22;58741;52.672;13.548;2022-08-01T15:41:49;24.60;63.60
71084;DHT22;58741;52.672;13.548;2022-08-01T15:44:15;24.70;65.30